Time;durP1;ratioP1;P1;durP2;ratioP2;P2;SDS_P1;SDS_P2;PMS_P1;PMS_P2;Temp;Humidity;BMP_temperature;BMP_pressure;BME280_temperature;BME280_humidity;BME280_pressure;Samples;Min_cycle;Max_cycle;Signal;HPM_P1;HPM_P2
2023/03/23 00:02:37;;;;;;;27.70;9.00;;;;;;;10.47;83.00;98870.21;107509;1279;72894;-73
2023/03/23 00:05:23;;;;;;;14.60;7.90;;;;;;;10.47;83.28;98870.39;106971;1279;59608;-71
2023/03/23 00:08:12;;;;;;;14.00;7.60;;;;;;;10.49;83.24;98865.64;107508;1279;58914;-72
2023/03/23 00:11:01;;;;;;;18.10;7.30;;;;;;;10.50;83.14;98864.10;107497;1279;73374;-73
2023/03/23 00:13:52;;;;;;;15.10;7.60;;;;;;;10.47;83.13;98859.25;107345;1279;68747;-73
2023/03/23 00:16:40;;;;;;;14.50;7.10;;;;;;;10.49;83.00;98855.88;107548;1279;71825;-74
2023/03/23 00:19:27;;;;;;;12.20;7.00;;;;;;;10.45;83.09;98857.48;107461;1279;57881;-72
2023/03/23 00:22:21;;;;;;;16.20;8.60;;;;;;;10.39;83.70;98855.95;107108;1279;61195;-70
2023/03/23 00:25:08;;;;;;;15.00;7.80;;;;;;;10.31;83.79;98853.83;107486;1279;71994;-71
2023/03/23 00:27:54;;;;;;;15.40;7.80;;;;;;;10.24;84.31;98846.50;107372;1279;67273;-71
2023/03/23 00:30:41;;;;;;;16.40;8.80;;;;;;;10.16;84.68;98846.23;107270;1279;71128;-71
2023/03/23 00:33:33;;;;;;;14.00;8.00;;;;;;;10.10;84.63;98851.60;107452;1279;57300;-70
2023/03/23 00:36:22;;;;;;;15.60;8.10;;;;;;;10.00;85.35;98851.38;107170;1279;60305;-73
2023/03/23 00:39:09;;;;;;;20.10;9.70;;;;;;;9.93;85.44;98849.41;107211;1281;72873;-70
2023/03/23 00:42:00;;;;;;;15.20;8.80;;;;;;;9.86;85.77;98844.95;106981;1281;67022;-71
2023/03/23 00:44:46;;;;;;;14.50;8.90;;;;;;;9.84;86.07;98851.19;107087;1282;73526;-70
2023/03/23 00:47:35;;;;;;;14.90;8.10;;;;;;;9.79;86.29;98845.27;107179;1281;57964;-71
2023/03/23 00:50:23;;;;;;;15.50;8.20;;;;;;;9.75;86.58;98844.76;107212;1281;60115;-71
2023/03/23 00:53:09;;;;;;;15.90;7.80;;;;;;;9.70;87.15;98840.55;107290;1281;72000;-72
2023/03/23 00:55:56;;;;;;;18.00;9.00;;;;;;;9.65;86.83;98839.65;107230;1281;67870;-71
2023/03/23 00:58:42;;;;;;;17.40;8.30;;;;;;;9.60;87.13;98834.63;107202;1281;71265;-71
2023/03/23 01:01:29;;;;;;;17.60;8.90;;;;;;;9.58;87.00;98835.74;107022;1282;59602;-71
2023/03/23 01:04:16;;;;;;;14.70;8.00;;;;;;;9.53;87.38;98825.27;107259;1281;58009;-72
2023/03/23 01:07:02;;;;;;;15.50;8.80;;;;;;;9.51;87.64;98818.25;107218;1282;71782;-71
2023/03/23 01:09:49;;;;;;;14.40;8.20;;;;;;;9.49;87.40;98810.68;107382;1279;69110;-71
2023/03/23 01:12:35;;;;;;;15.30;8.40;;;;;;;9.47;87.62;98809.29;107329;1279;73550;-71
2023/03/23 01:15:22;;;;;;;14.90;8.50;;;;;;;9.43;87.53;98809.42;107442;1279;60749;-71
2023/03/23 01:18:09;;;;;;;13.90;8.00;;;;;;;9.42;87.76;98807.95;107492;1279;58870;-71
2023/03/23 01:20:55;;;;;;;16.10;8.50;;;;;;;9.40;88.21;98808.33;107466;1279;71119;-72
2023/03/23 01:23:42;;;;;;;14.20;8.00;;;;;;;9.36;87.99;98809.20;107490;1279;68863;-72
2023/03/23 01:26:29;;;;;;;15.10;8.40;;;;;;;9.32;88.39;98812.03;107483;1279;72595;-70
2023/03/23 01:29:15;;;;;;;13.60;7.80;;;;;;;9.28;88.87;98806.58;107452;1279;57718;-70
2023/03/23 01:32:02;;;;;;;16.40;8.70;;;;;;;9.25;88.91;98803.71;107305;1278;57873;-71
2023/03/23 01:34:48;;;;;;;12.70;7.70;;;;;;;9.22;88.85;98798.80;107314;1279;71497;-71
2023/03/23 01:37:36;;;;;;;15.60;7.60;;;;;;;9.19;88.98;98798.88;107345;1279;67728;-71
2023/03/23 01:40:22;;;;;;;13.10;7.10;;;;;;;9.17;88.87;98799.42;107320;1279;71213;-73
2023/03/23 01:43:14;;;;;;;13.90;7.70;;;;;;;9.16;89.02;98798.85;107303;1279;57765;-72
2023/03/23 01:46:02;;;;;;;16.70;8.20;;;;;;;9.12;89.51;98804.10;107461;1279;60281;-69
2023/03/23 01:48:50;;;;;;;15.30;7.70;;;;;;;9.09;89.52;98802.98;107682;1279;72228;-71
2023/03/23 01:51:44;;;;;;;15.60;8.40;;;;;;;9.07;89.39;98797.35;107534;1278;67665;-71
2023/03/23 01:54:31;;;;;;;15.90;7.90;;;;;;;9.05;89.31;98800.88;107321;1279;72671;-71
2023/03/23 01:57:21;;;;;;;15.50;7.80;;;;;;;9.02;89.57;98795.09;107400;1279;59610;-70
2023/03/23 02:00:16;;;;;;;12.90;6.90;;;;;;;8.96;89.36;98785.92;107258;1279;59023;-70
2023/03/23 02:03:05;;;;;;;12.00;6.50;;;;;;;8.96;89.53;98797.51;107339;1279;71484;-72
2023/03/23 02:05:54;;;;;;;15.70;8.00;;;;;;;8.90;89.78;98793.81;107433;1278;67367;-70
2023/03/23 02:08:51;;;;;;;12.50;5.80;;;;;;;8.83;90.17;98789.45;107359;1279;71333;-74
2023/03/23 02:11:38;;;;;;;15.80;7.60;;;;;;;8.78;90.59;98789.40;107179;1279;57478;-70
2023/03/23 02:14:27;;;;;;;14.20;8.40;;;;;;;8.72;90.90;98792.55;107485;1278;59207;-72
2023/03/23 02:17:39;;;;;;;14.80;7.60;;;;;;;8.64;91.10;98772.60;107078;1282;73871;-72
2023/03/23 02:20:50;;;;;;;13.80;7.80;;;;;;;8.61;91.28;98766.32;107376;1279;68939;-71
2023/03/23 02:24:18;;;;;;;14.30;7.80;;;;;;;8.56;91.67;98766.80;107256;1279;72747;-72
2023/03/23 02:27:13;;;;;;;15.50;8.40;;;;;;;8.47;92.17;98767.15;107253;1279;57883;-72
2023/03/23 02:30:27;;;;;;;15.70;9.00;;;;;;;8.41;92.70;98767.33;107347;1279;60297;-71
2023/03/23 02:33:44;;;;;;;17.80;9.20;;;;;;;8.34;92.99;98761.82;107447;1279;71493;-71
2023/03/23 02:36:43;;;;;;;14.30;8.10;;;;;;;8.31;93.49;98757.42;107429;1279;68314;-70
2023/03/23 02:39:40;;;;;;;15.60;8.10;;;;;;;8.28;93.99;98747.68;107333;1279;73547;-72
2023/03/23 02:42:31;;;;;;;16.10;8.90;;;;;;;8.19;94.53;98734.61;106926;1281;57464;-73
2023/03/23 02:45:21;;;;;;;17.80;9.30;;;;;;;8.19;94.58;98740.45;107151;1282;58886;-70
2023/03/23 02:48:09;;;;;;;18.40;9.50;;;;;;;8.17;94.60;98738.73;107079;1281;72818;-71
2023/03/23 02:50:58;;;;;;;19.20;8.90;;;;;;;8.13;94.66;98727.55;106958;1282;67780;-71
2023/03/23 02:53:46;;;;;;;18.00;10.10;;;;;;;8.11;94.84;98727.23;107074;1281;72383;-71
2023/03/23 02:56:34;;;;;;;16.60;8.70;;;;;;;8.08;94.94;98726.23;107089;1284;58192;-72
2023/03/23 02:59:20;;;;;;;16.20;8.70;;;;;;;8.07;95.06;98727.63;107047;1281;58838;-72
2023/03/23 03:02:17;;;;;;;14.60;8.40;;;;;;;8.04;95.46;98729.42;106983;1282;73005;-72
2023/03/23 03:05:28;;;;;;;16.20;8.20;;;;;;;8.04;95.62;98738.13;106905;1286;67962;-73
2023/03/23 03:08:58;;;;;;;18.60;10.20;;;;;;;8.04;95.38;98734.25;107136;1282;71298;-73
2023/03/23 03:11:50;;;;;;;16.00;8.40;;;;;;;8.03;95.87;98734.68;107105;1282;59576;-73
2023/03/23 03:15:26;;;;;;;14.80;7.80;;;;;;;8.03;95.38;98730.98;107210;1281;58893;-72
2023/03/23 03:18:22;;;;;;;14.60;8.20;;;;;;;8.01;95.43;98743.08;106841;1284;71696;-72
2023/03/23 03:21:12;;;;;;;13.80;7.50;;;;;;;7.99;95.59;98743.15;106654;1285;67951;-71
2023/03/23 03:24:03;;;;;;;16.20;8.20;;;;;;;7.97;95.26;98739.89;106582;1284;71598;-70
2023/03/23 03:26:53;;;;;;;14.10;7.60;;;;;;;7.96;95.51;98733.52;106702;1285;59452;-71
2023/03/23 03:29:53;;;;;;;15.50;7.60;;;;;;;7.93;95.62;98739.23;106659;1285;58793;-71
2023/03/23 03:32:48;;;;;;;15.00;8.10;;;;;;;7.90;95.93;98737.73;106674;1284;73260;-69
2023/03/23 03:35:40;;;;;;;15.20;7.90;;;;;;;7.87;95.95;98734.12;106687;1284;66412;-71
2023/03/23 03:38:27;;;;;;;16.20;8.80;;;;;;;7.85;95.94;98725.64;106792;1285;71089;-70
2023/03/23 03:41:15;;;;;;;13.90;7.10;;;;;;;7.85;95.96;98724.58;106956;1285;58356;-71
2023/03/23 03:44:02;;;;;;;13.90;8.40;;;;;;;7.85;95.95;98725.80;106736;1283;59558;-73
2023/03/23 03:46:49;;;;;;;13.70;7.70;;;;;;;7.85;95.72;98721.04;106842;1288;73373;-73
2023/03/23 03:49:35;;;;;;;13.50;7.20;;;;;;;7.82;95.75;98721.15;106903;1282;68757;-72
2023/03/23 03:52:21;;;;;;;14.60;8.10;;;;;;;7.86;95.81;98727.84;106906;1285;72509;-72
2023/03/23 03:55:10;;;;;;;14.40;8.10;;;;;;;7.83;95.78;98713.78;106972;1278;57403;-71
2023/03/23 03:57:58;;;;;;;16.00;8.10;;;;;;;7.87;95.45;98714.52;107306;1279;59026;-70
2023/03/23 04:01:09;;;;;;;15.90;8.10;;;;;;;7.89;95.37;98709.61;107487;1279;74033;-72
2023/03/23 04:03:56;;;;;;;14.70;7.80;;;;;;;7.91;95.08;98711.02;107463;1279;66732;-72
2023/03/23 04:06:49;;;;;;;13.20;7.80;;;;;;;7.93;95.07;98719.45;107442;1280;72623;-71
2023/03/23 04:09:36;;;;;;;15.00;7.90;;;;;;;7.95;94.73;98717.50;107229;1285;57974;-74
2023/03/23 04:12:23;;;;;;;13.30;7.20;;;;;;;7.97;94.54;98713.76;107456;1278;58947;-72
2023/03/23 04:15:15;;;;;;;13.50;7.70;;;;;;;7.99;94.33;98708.32;107590;1279;73045;-74
2023/03/23 04:18:02;;;;;;;16.90;7.70;;;;;;;8.02;94.27;98705.23;107464;1279;66671;-73
2023/03/23 04:20:50;;;;;;;14.40;7.60;;;;;;;8.04;93.92;98701.77;107398;1279;72256;-74
2023/03/23 04:23:38;;;;;;;13.80;7.20;;;;;;;8.06;93.68;98696.40;107429;1279;59653;-73
2023/03/23 04:26:30;;;;;;;13.20;7.20;;;;;;;8.07;93.61;98687.69;107307;1279;60430;-72
2023/03/23 04:29:20;;;;;;;12.00;6.60;;;;;;;8.09;93.32;98683.76;107231;1279;70654;-74
2023/03/23 04:32:41;;;;;;;15.10;6.90;;;;;;;8.11;93.04;98689.75;107358;1279;66794;-72
2023/03/23 04:35:29;;;;;;;12.20;6.40;;;;;;;8.12;93.04;98676.46;107297;1279;73766;-71
2023/03/23 04:38:32;;;;;;;13.50;7.00;;;;;;;8.12;92.78;98685.68;107312;1280;59604;-73
2023/03/23 04:41:24;;;;;;;11.80;5.80;;;;;;;8.13;92.66;98693.33;107339;1279;58854;-71
2023/03/23 04:44:22;;;;;;;14.60;7.20;;;;;;;8.14;92.55;98684.73;107389;1280;71825;-75
2023/03/23 04:47:20;;;;;;;15.50;7.20;;;;;;;8.16;92.49;98688.81;107437;1279;67584;-75
2023/03/23 04:50:12;;;;;;;14.50;7.90;;;;;;;8.18;92.44;98688.61;107413;1279;72822;-72
2023/03/23 04:53:04;;;;;;;13.00;7.10;;;;;;;8.21;92.05;98683.95;107406;1280;59331;-72
2023/03/23 04:55:52;;;;;;;15.10;7.10;;;;;;;8.23;91.88;98681.61;107413;1279;58794;-75
2023/03/23 04:58:39;;;;;;;11.30;7.10;;;;;;;8.26;91.69;98672.35;107297;1279;71841;-74
2023/03/23 05:01:45;;;;;;;11.80;6.70;;;;;;;8.28;91.74;98670.90;107493;1279;66556;-76
2023/03/23 05:04:40;;;;;;;14.60;7.30;;;;;;;8.30;91.65;98672.01;107358;1279;71397;-73
2023/03/23 05:07:33;;;;;;;15.50;7.30;;;;;;;8.31;91.67;98667.84;107288;1279;58755;-76
2023/03/23 05:10:19;;;;;;;16.60;9.20;;;;;;;8.32;91.64;98658.08;107393;1278;58494;-75
2023/03/23 05:13:06;;;;;;;15.10;8.10;;;;;;;8.33;91.39;98657.39;107159;1279;73073;-74
2023/03/23 05:15:53;;;;;;;14.70;7.30;;;;;;;8.35;91.34;98657.42;107383;1279;67012;-73
2023/03/23 05:18:39;;;;;;;13.80;7.80;;;;;;;8.37;91.27;98654.80;107375;1279;71873;-74
2023/03/23 05:21:26;;;;;;;16.70;7.60;;;;;;;8.37;91.04;98646.29;107262;1280;58307;-73
2023/03/23 05:24:13;;;;;;;13.50;7.30;;;;;;;8.40;91.02;98645.46;107398;1279;58740;-73
2023/03/23 05:27:04;;;;;;;14.60;7.60;;;;;;;8.44;90.81;98646.74;107422;1278;73951;-73
2023/03/23 05:29:52;;;;;;;15.00;8.10;;;;;;;8.45;90.31;98644.36;107239;1279;66624;-74
2023/03/23 05:32:41;;;;;;;17.10;8.30;;;;;;;8.48;90.07;98638.98;107347;1278;71712;-73
2023/03/23 05:35:47;;;;;;;15.90;7.50;;;;;;;8.55;89.71;98631.25;107412;1280;58005;-74
2023/03/23 05:38:36;;;;;;;15.90;7.90;;;;;;;8.61;89.46;98629.95;107248;1281;59260;-74
2023/03/23 05:41:22;;;;;;;;;;;;;;;8.70;89.06;98636.57;107146;1282;73845;-73
2023/03/23 05:44:10;;;;;;;13.70;7.90;;;;;;;8.78;88.56;98632.27;106873;1285;68300;-74
2023/03/23 05:47:07;;;;;;;17.00;8.80;;;;;;;8.87;87.99;98632.06;107071;1282;71630;-74
2023/03/23 05:49:56;;;;;;;15.60;7.90;;;;;;;8.93;87.51;98645.30;106946;1280;58034;-74
2023/03/23 05:52:42;;;;;;;13.80;7.20;;;;;;;8.98;87.28;98635.55;106948;1282;59030;-75
2023/03/23 05:55:30;;;;;;;12.90;7.10;;;;;;;9.05;86.54;98627.88;107146;1281;72909;-74
2023/03/23 05:58:23;;;;;;;13.10;6.70;;;;;;;9.11;86.37;98619.89;107051;1281;66534;-73
2023/03/23 06:01:13;;;;;;;13.60;6.30;;;;;;;9.16;85.85;98622.89;107155;1282;72610;-74
2023/03/23 06:03:59;;;;;;;12.40;6.20;;;;;;;9.23;85.82;98619.66;106948;1282;57841;-73
2023/03/23 06:06:54;;;;;;;12.80;6.30;;;;;;;9.28;85.47;98595.41;107096;1282;60309;-75
2023/03/23 06:09:41;;;;;;;15.00;7.00;;;;;;;9.35;85.11;98600.75;107150;1279;72832;-75
2023/03/23 06:12:45;;;;;;;12.60;5.50;;;;;;;9.41;84.60;98606.80;107359;1279;67938;-74
2023/03/23 06:15:39;;;;;;;12.10;6.40;;;;;;;9.41;84.32;98608.75;107413;1279;71572;-74
2023/03/23 06:18:36;;;;;;;12.80;6.20;;;;;;;9.44;84.11;98607.59;107240;1279;57383;-76
2023/03/23 06:21:28;;;;;;;13.40;6.80;;;;;;;9.43;83.98;98614.36;107413;1279;60448;-73
2023/03/23 06:24:19;;;;;;;13.20;6.50;;;;;;;9.40;83.98;98622.06;107224;1281;73045;-72
2023/03/23 06:27:05;;;;;;;11.50;6.10;;;;;;;9.37;84.15;98625.70;107112;1282;67732;-73
2023/03/23 06:29:51;;;;;;;13.20;6.90;;;;;;;9.37;84.27;98624.67;107234;1282;72529;-77
2023/03/23 06:32:38;;;;;;;11.10;5.20;;;;;;;9.39;84.71;98626.63;107058;1281;58364;-73
2023/03/23 06:35:26;;;;;;;14.70;6.40;;;;;;;9.42;84.46;98616.94;107277;1281;60440;-74
2023/03/23 06:38:18;;;;;;;;;;;;;;;9.46;84.06;98605.77;107224;1281;71637;-74
2023/03/23 06:41:12;;;;;;;11.00;6.20;;;;;;;9.50;84.18;98611.52;106910;1281;69074;-76
2023/03/23 06:44:00;;;;;;;13.80;6.60;;;;;;;9.57;83.61;98608.77;106907;1281;72602;-71
2023/03/23 06:46:50;;;;;;;12.80;6.60;;;;;;;9.65;83.45;98612.04;106885;1280;59461;-73
2023/03/23 06:49:58;;;;;;;12.70;5.80;;;;;;;9.77;83.48;98606.81;106942;1281;60145;-73
2023/03/23 06:53:04;;;;;;;12.60;6.70;;;;;;;9.91;82.75;98590.27;107226;1281;71626;-75
2023/03/23 06:55:51;;;;;;;15.60;6.60;;;;;;;9.99;82.47;98577.00;107376;1279;66725;-73
2023/03/23 06:58:37;;;;;;;15.60;7.10;;;;;;;10.07;82.05;98576.77;107381;1280;72412;-71
2023/03/23 07:01:24;;;;;;;13.90;5.90;;;;;;;10.16;81.97;98592.40;107420;1279;57901;-76
2023/03/23 07:04:16;;;;;;;12.50;6.70;;;;;;;10.23;81.79;98586.92;107191;1278;60369;-72
2023/03/23 07:07:24;;;;;;;15.10;6.70;;;;;;;10.30;81.24;98573.95;107400;1279;72650;-72
2023/03/23 07:10:31;;;;;;;10.90;5.10;;;;;;;10.40;80.81;98574.82;107473;1280;66497;-72
2023/03/23 07:13:20;;;;;;;12.90;6.20;;;;;;;10.51;79.89;98563.40;107024;1279;71424;-73
2023/03/23 07:16:10;;;;;;;13.40;5.40;;;;;;;10.58;79.31;98560.55;107190;1279;57288;-73
2023/03/23 07:18:59;;;;;;;12.80;5.90;;;;;;;10.62;78.51;98564.60;107377;1279;59407;-73
2023/03/23 07:21:46;;;;;;;12.80;5.80;;;;;;;10.58;78.45;98581.00;107392;1279;74145;-74
2023/03/23 07:24:34;;;;;;;15.20;6.80;;;;;;;10.51;78.40;98584.15;107199;1279;66454;-75
2023/03/23 07:27:27;;;;;;;12.80;6.70;;;;;;;10.51;78.88;98569.29;107390;1279;72644;-73
2023/03/23 07:30:15;;;;;;;14.50;6.90;;;;;;;10.59;78.70;98560.28;107329;1279;57449;-72
2023/03/23 07:33:06;;;;;;;14.40;7.40;;;;;;;10.69;78.38;98561.95;107363;1279;59266;-73
2023/03/23 07:35:52;;;;;;;16.50;6.40;;;;;;;10.76;78.28;98562.33;107396;1279;71603;-73
2023/03/23 07:38:38;;;;;;;18.40;7.80;;;;;;;10.78;77.41;98559.48;107404;1279;67904;-72
2023/03/23 07:41:24;;;;;;;13.50;7.00;;;;;;;10.79;77.22;98550.97;107155;1279;72722;-73
2023/03/23 07:44:11;;;;;;;13.20;6.50;;;;;;;10.97;76.66;98539.26;107328;1279;57897;-78
2023/03/23 07:46:57;;;;;;;15.40;6.40;;;;;;;11.27;75.81;98532.59;107444;1279;60253;-75
2023/03/23 07:49:49;;;;;;;13.00;5.50;;;;;;;11.49;75.12;98536.48;107324;1279;71235;-73
2023/03/23 07:52:55;;;;;;;13.70;6.30;;;;;;;11.58;73.73;98541.04;107210;1279;66292;-76
2023/03/23 07:55:42;;;;;;;12.20;6.00;;;;;;;11.71;74.13;98527.40;107347;1279;73480;-73
2023/03/23 07:58:57;;;;;;;13.70;6.30;;;;;;;11.84;71.94;98521.07;107240;1279;60340;-75
2023/03/23 08:01:44;;;;;;;16.20;6.60;;;;;;;11.94;71.60;98523.31;107337;1279;60140;-73
2023/03/23 08:05:02;;;;;;;13.70;6.60;;;;;;;12.13;71.02;98530.38;107267;1279;73752;-73
2023/03/23 08:08:20;;;;;;;11.90;5.80;;;;;;;12.27;70.19;98529.58;107245;1278;66463;-78
2023/03/23 08:11:26;;;;;;;13.60;6.30;;;;;;;12.42;70.44;98525.13;107410;1279;72603;-77
2023/03/23 08:14:33;;;;;;;12.60;5.90;;;;;;;12.76;69.95;98533.46;107203;1279;57856;-72
2023/03/23 08:17:31;;;;;;;13.40;5.80;;;;;;;13.17;68.70;98545.81;107276;1280;60081;-72
2023/03/23 08:20:36;;;;;;;12.30;5.70;;;;;;;13.29;67.59;98545.19;107369;1280;72261;-72
2023/03/23 08:23:37;;;;;;;11.20;5.50;;;;;;;13.21;67.80;98542.23;107290;1280;67798;-74
2023/03/23 08:26:42;;;;;;;11.60;5.80;;;;;;;13.06;68.73;98544.88;107300;1280;72767;-75
2023/03/23 08:29:50;;;;;;;12.10;6.10;;;;;;;12.85;68.57;98547.29;107269;1280;58145;-73
2023/03/23 08:32:56;;;;;;;11.90;5.40;;;;;;;12.63;69.59;98551.50;107285;1280;60223;-72
2023/03/23 08:36:05;;;;;;;11.40;5.20;;;;;;;12.58;70.44;98554.92;107335;1280;73125;-74
2023/03/23 08:39:10;;;;;;;10.70;5.20;;;;;;;12.34;70.75;98548.27;107414;1279;66479;-73
2023/03/23 08:42:18;;;;;;;10.00;4.70;;;;;;;12.26;72.32;98549.27;107133;1280;72624;-73
2023/03/23 08:45:09;;;;;;;10.60;4.90;;;;;;;12.14;72.96;98553.03;106901;1280;59510;-70
2023/03/23 08:48:22;;;;;;;13.80;5.40;;;;;;;12.00;74.04;98555.27;107297;1279;58895;-75
2023/03/23 08:51:29;;;;;;;12.20;5.70;;;;;;;11.92;74.94;98556.94;107364;1279;71933;-72
2023/03/23 08:54:31;;;;;;;11.60;5.10;;;;;;;11.82;74.95;98565.27;107464;1279;67763;-74
2023/03/23 08:57:44;;;;;;;11.00;5.00;;;;;;;11.66;76.05;98564.34;107375;1278;71105;-73
2023/03/23 09:00:53;;;;;;;9.20;4.60;;;;;;;11.59;76.68;98557.05;107430;1279;58362;-73
2023/03/23 09:04:05;;;;;;;10.40;4.70;;;;;;;11.59;77.04;98554.56;107480;1279;59190;-73
2023/03/23 09:07:16;;;;;;;8.80;4.30;;;;;;;11.56;77.17;98554.69;107381;1279;70660;-74
2023/03/23 09:10:02;;;;;;;10.10;4.40;;;;;;;11.53;77.61;98547.25;107539;1279;65560;-72
2023/03/23 09:12:49;;;;;;;8.80;4.10;;;;;;;11.62;77.64;98551.96;107435;1279;73704;-72
2023/03/23 09:15:35;;;;;;;9.10;4.30;;;;;;;11.69;77.74;98549.31;107425;1278;58317;-74
2023/03/23 09:18:21;;;;;;;10.10;4.50;;;;;;;11.76;77.77;98545.74;107423;1278;59955;-75
2023/03/23 09:21:08;;;;;;;9.00;4.20;;;;;;;11.81;78.03;98545.24;107451;1279;73110;-71
2023/03/23 09:23:58;;;;;;;7.80;4.10;;;;;;;11.77;77.82;98546.80;107491;1279;68974;-74
2023/03/23 09:26:45;;;;;;;10.10;4.40;;;;;;;11.63;78.07;98550.10;107401;1278;72752;-74
2023/03/23 09:29:30;;;;;;;10.40;4.50;;;;;;;11.51;78.74;98548.48;107262;1278;57363;-71
2023/03/23 09:32:16;;;;;;;8.50;3.70;;;;;;;11.47;79.46;98547.46;107465;1279;59017;-73
2023/03/23 09:35:09;;;;;;;10.30;4.40;;;;;;;11.34;80.28;98554.88;107413;1279;73890;-67
2023/03/23 09:37:56;;;;;;;10.10;4.30;;;;;;;11.21;81.38;98548.23;107418;1278;68728;-68
2023/03/23 09:41:03;;;;;;;9.20;4.50;;;;;;;11.11;82.11;98547.34;107405;1279;73444;-67
2023/03/23 09:44:03;;;;;;;8.40;4.10;;;;;;;11.00;83.18;98548.09;106600;1279;1002491;-69
2023/03/23 09:46:52;;;;;;;11.20;4.70;;;;;;;10.90;83.69;98547.38;107450;1278;59064;-67
2023/03/23 09:49:48;;;;;;;8.90;3.30;;;;;;;10.89;84.27;98548.20;107397;1279;74108;-68
2023/03/23 09:52:44;;;;;;;9.70;5.00;;;;;;;10.91;84.26;98543.35;107440;1279;67903;-69
2023/03/23 09:55:31;;;;;;;9.20;4.60;;;;;;;10.97;84.60;98547.73;106560;1279;1002358;-68
2023/03/23 09:58:37;;;;;;;10.30;4.50;;;;;;;10.95;84.90;98552.89;107458;1279;60569;-67
2023/03/23 10:01:34;;;;;;;8.20;3.40;;;;;;;11.02;85.01;98552.35;107334;1279;59332;-65
2023/03/23 10:04:51;;;;;;;9.00;3.60;;;;;;;11.03;85.17;98550.00;107393;1278;72798;-69
2023/03/23 10:07:38;;;;;;;8.90;3.90;;;;;;;11.08;84.88;98555.23;107288;1279;68773;-66
2023/03/23 10:11:04;;;;;;;8.10;3.70;;;;;;;11.13;85.12;98558.14;107434;1279;71223;-68
2023/03/23 10:13:57;;;;;;;8.70;4.30;;;;;;;11.17;84.66;98558.31;106868;1284;59307;-75
2023/03/23 10:17:13;;;;;;;8.00;3.30;;;;;;;11.21;84.46;98555.29;106937;1284;58368;-75
2023/03/23 10:20:46;;;;;;;6.90;3.30;;;;;;;11.35;84.31;98553.21;106713;1284;72987;-72
2023/03/23 10:23:57;;;;;;;7.50;2.80;;;;;;;11.48;83.44;98564.61;106417;1288;66029;-74
2023/03/23 10:27:24;;;;;;;7.60;2.60;;;;;;;11.54;83.32;98562.17;106390;1288;72814;-73
2023/03/23 10:30:11;;;;;;;6.90;2.90;;;;;;;11.60;82.98;98563.02;106408;1288;59405;-74
2023/03/23 10:33:47;;;;;;;8.20;3.60;;;;;;;11.60;82.76;98560.32;106341;1289;61187;-74
2023/03/23 10:36:53;;;;;;;7.20;3.20;;;;;;;11.60;82.85;98563.36;106426;1288;72826;-75
2023/03/23 10:39:56;;;;;;;6.70;3.00;;;;;;;11.64;82.36;98563.20;106409;1288;67640;-76
2023/03/23 10:42:42;;;;;;;7.00;3.10;;;;;;;11.71;82.60;98562.75;106302;1289;72708;-72
2023/03/23 10:45:34;;;;;;;6.90;3.00;;;;;;;11.69;82.08;98561.39;106260;1289;57960;-72
2023/03/23 10:48:38;;;;;;;7.10;3.00;;;;;;;11.70;81.97;98562.54;106434;1289;59160;-73
2023/03/23 10:51:33;;;;;;;7.60;2.80;;;;;;;11.73;81.65;98567.32;106500;1286;72983;-73
2023/03/23 10:54:40;;;;;;;7.70;3.40;;;;;;;11.72;81.21;98562.25;106433;1286;68252;-77
2023/03/23 10:57:31;;;;;;;6.30;2.40;;;;;;;11.77;81.16;98562.27;106616;1286;72558;-74
2023/03/23 11:00:26;;;;;;;7.10;2.80;;;;;;;11.83;80.72;98563.05;107053;1279;58239;-74
2023/03/23 11:03:17;;;;;;;7.90;3.10;;;;;;;11.81;80.33;98558.17;107482;1278;60470;-72
2023/03/23 11:06:09;;;;;;;7.60;2.90;;;;;;;11.87;80.56;98556.38;107496;1279;72141;-72
2023/03/23 11:09:02;;;;;;;8.00;2.80;;;;;;;11.87;80.58;98562.15;107287;1278;68960;-74
2023/03/23 11:11:56;;;;;;;6.50;2.50;;;;;;;11.87;80.56;98562.15;107205;1279;73739;-74
2023/03/23 11:14:44;;;;;;;7.30;2.80;;;;;;;11.82;80.75;98559.44;107495;1278;57956;-75
2023/03/23 11:17:30;;;;;;;8.00;3.00;;;;;;;11.85;80.80;98547.91;107409;1278;59430;-74
2023/03/23 11:20:20;;;;;;;6.90;2.60;;;;;;;11.98;80.41;98541.98;107565;1278;73816;-74
2023/03/23 11:23:15;;;;;;;7.60;2.70;;;;;;;12.05;80.06;98544.92;107691;1278;66308;-75
2023/03/23 11:26:37;;;;;;;6.80;2.70;;;;;;;12.05;79.82;98540.70;107775;1279;72492;-73
2023/03/23 11:29:28;;;;;;;7.70;2.60;;;;;;;12.05;80.27;98535.84;107722;1279;56992;-73
2023/03/23 11:32:17;;;;;;;5.90;2.30;;;;;;;11.89;80.32;98527.95;106725;1279;1002143;-73
2023/03/23 11:35:15;;;;;;;6.80;2.60;;;;;;;11.77;80.29;98535.08;107337;1279;71100;-74
2023/03/23 11:38:04;;;;;;;6.90;2.20;;;;;;;11.77;80.70;98534.90;107471;1279;66294;-75
2023/03/23 11:40:52;;;;;;;6.60;2.30;;;;;;;11.78;79.94;98536.94;107417;1279;70457;-75
2023/03/23 11:43:46;;;;;;;6.20;2.10;;;;;;;11.82;79.26;98540.31;107412;1279;57887;-74
2023/03/23 11:46:42;;;;;;;6.00;2.10;;;;;;;11.92;78.18;98539.89;107508;1279;59429;-75
2023/03/23 11:50:08;;;;;;;6.40;2.10;;;;;;;12.21;77.76;98533.60;107460;1279;73232;-75
2023/03/23 11:53:13;;;;;;;6.00;2.10;;;;;;;12.59;75.36;98533.77;107311;1279;67140;-75
2023/03/23 11:56:39;;;;;;;6.40;2.30;;;;;;;12.99;74.32;98543.04;107450;1279;71212;-74
2023/03/23 11:59:35;;;;;;;5.60;2.00;;;;;;;13.61;72.08;98533.96;107440;1279;57744;-73
2023/03/23 12:02:52;;;;;;;6.20;2.30;;;;;;;13.79;69.65;98536.37;107499;1278;60065;-74
2023/03/23 12:05:56;;;;;;;6.60;2.30;;;;;;;14.02;69.48;98529.92;107449;1279;72000;-75
2023/03/23 12:08:50;;;;;;;7.60;2.20;;;;;;;14.16;68.59;98534.44;107386;1279;67715;-74
2023/03/23 12:12:12;;;;;;;6.20;2.30;;;;;;;14.29;67.10;98529.17;107476;1279;71247;-75
2023/03/23 12:15:09;;;;;;;6.20;1.90;;;;;;;14.54;66.69;98537.44;107454;1279;57499;-74
2023/03/23 12:18:18;;;;;;;6.10;2.00;;;;;;;14.45;65.71;98525.71;107461;1279;60345;-74
2023/03/23 12:21:27;;;;;;;7.10;2.20;;;;;;;14.34;65.83;98529.28;107444;1279;71704;-74
2023/03/23 12:24:52;;;;;;;5.60;1.80;;;;;;;14.30;66.32;98531.48;107045;1278;66294;-74
2023/03/23 12:27:41;;;;;;;6.10;2.00;;;;;;;14.42;66.22;98535.10;106893;1284;70151;-74
2023/03/23 12:31:13;;;;;;;6.10;1.70;;;;;;;14.46;65.00;98533.15;107060;1284;57745;-77
2023/03/23 12:34:05;;;;;;;6.70;1.60;;;;;;;14.24;64.95;98523.61;106838;1283;60228;-74
2023/03/23 12:37:19;;;;;;;5.70;1.90;;;;;;;14.11;65.37;98520.85;106853;1284;73906;-75
2023/03/23 12:40:45;;;;;;;6.30;2.00;;;;;;;14.09;66.05;98520.60;106946;1284;68042;-73
2023/03/23 12:43:52;;;;;;;4.90;1.70;;;;;;;13.96;66.39;98526.71;106936;1284;71291;-73
2023/03/23 12:46:50;;;;;;;5.70;1.50;;;;;;;13.82;65.97;98528.73;106790;1283;57463;-73
2023/03/23 12:50:01;;;;;;;6.50;1.80;;;;;;;13.79;66.96;98523.30;106756;1284;59145;-75
2023/03/23 12:53:01;;;;;;;5.90;1.60;;;;;;;13.76;66.78;98530.11;106959;1284;72149;-73
2023/03/23 12:56:08;;;;;;;5.30;1.40;;;;;;;13.60;67.24;98525.56;106971;1284;68707;-76
2023/03/23 12:59:41;;;;;;;6.00;1.60;;;;;;;13.44;67.93;98519.16;106867;1283;72616;-74
2023/03/23 13:02:37;;;;;;;5.00;1.60;;;;;;;13.57;67.86;98516.35;106939;1284;58067;-76
2023/03/23 13:05:24;;;;;;;5.50;1.50;;;;;;;13.62;68.01;98516.48;107433;1279;58767;-75
2023/03/23 13:09:10;;;;;;;6.00;1.70;;;;;;;13.67;67.80;98517.06;107508;1278;74247;-76
2023/03/23 13:11:59;;;;;;;5.30;1.50;;;;;;;13.74;67.49;98512.33;106959;1283;67849;-75
2023/03/23 13:15:39;;;;;;;6.80;1.50;;;;;;;13.77;67.81;98521.77;106568;1287;71432;-74
2023/03/23 13:18:29;;;;;;;5.20;1.60;;;;;;;13.74;67.91;98526.06;106291;1287;57662;-74
2023/03/23 13:21:30;;;;;;;5.80;1.60;;;;;;;13.72;68.36;98535.55;106538;1287;58921;-73
2023/03/23 13:24:23;;;;;;;6.30;1.70;;;;;;;13.78;68.11;98526.08;106264;1287;73113;-74
2023/03/23 13:27:11;;;;;;;5.70;1.70;;;;;;;13.75;68.16;98527.23;106470;1287;67793;-75
2023/03/23 13:29:59;;;;;;;5.40;1.70;;;;;;;13.65;68.49;98529.57;106391;1287;71387;-76
2023/03/23 13:32:45;;;;;;;6.50;1.70;;;;;;;13.57;68.78;98526.21;106319;1287;58857;-78
2023/03/23 13:35:41;;;;;;;6.60;1.70;;;;;;;13.71;68.77;98529.60;106398;1287;60219;-74
2023/03/23 13:38:29;;;;;;;5.40;1.50;;;;;;;13.80;68.33;98525.33;106432;1287;72018;-76